sensor_id;sensor_type;location;lat;lon;timestamp;P1;durP1;ratioP1;P2;durP2;ratioP2
9007;SDS011;62813;51.424;6.762;2022-08-21T00:02:13;8.40;;;4.93;;
9007;SDS011;62813;51.424;6.762;2022-08-21T00:04:44;7.00;;;4.50;;
9007;SDS011;62813;51.424;6.762;2022-08-21T00:07:22;7.77;;;4.23;;
9007;SDS011;62813;51.424;6.762;2022-08-21T00:09:50;7.30;;;4.00;;
9007;SDS011;62813;51.424;6.762;2022-08-21T00:12:17;8.73;;;4.13;;
9007;SDS011;62813;51.424;6.762;2022-08-21T00:14:44;7.93;;;4.10;;
9007;SDS011;62813;51.424;6.762;2022-08-21T00:17:11;7.50;;;4.10;;
9007;SDS011;62813;51.424;6.762;2022-08-21T00:19:38;7.63;;;4.07;;
9007;SDS011;62813;51.424;6.762;2022-08-21T00:22:05;6.40;;;3.80;;
9007;SDS011;62813;51.424;6.762;2022-08-21T00:24:31;7.83;;;3.93;;
9007;SDS011;62813;51.424;6.762;2022-08-21T00:26:58;7.50;;;4.07;;
9007;SDS011;62813;51.424;6.762;2022-08-21T00:29:25;7.00;;;4.57;;
9007;SDS011;62813;51.424;6.762;2022-08-21T00:31:51;8.37;;;4.00;;
9007;SDS011;62813;51.424;6.762;2022-08-21T00:34:18;8.03;;;4.20;;
9007;SDS011;62813;51.424;6.762;2022-08-21T00:36:45;6.97;;;4.27;;
9007;SDS011;62813;51.424;6.762;2022-08-21T00:39:11;9.90;;;4.30;;
9007;SDS011;62813;51.424;6.762;2022-08-21T00:41:39;8.93;;;4.33;;
9007;SDS011;62813;51.424;6.762;2022-08-21T00:44:08;9.13;;;4.37;;
9007;SDS011;62813;51.424;6.762;2022-08-21T00:46:37;5.80;;;4.13;;
9007;SDS011;62813;51.424;6.762;2022-08-21T00:49:05;5.27;;;3.83;;
9007;SDS011;62813;51.424;6.762;2022-08-21T00:51:35;7.97;;;4.27;;
9007;SDS011;62813;51.424;6.762;2022-08-21T00:54:08;8.90;;;4.60;;
9007;SDS011;62813;51.424;6.762;2022-08-21T00:56:44;10.97;;;4.97;;
9007;SDS011;62813;51.424;6.762;2022-08-21T00:59:16;8.03;;;4.17;;
9007;SDS011;62813;51.424;6.762;2022-08-21T01:01:46;8.37;;;4.27;;
9007;SDS011;62813;51.424;6.762;2022-08-21T01:04:13;11.60;;;4.43;;
9007;SDS011;62813;51.424;6.762;2022-08-21T01:06:41;6.53;;;4.03;;
9007;SDS011;62813;51.424;6.762;2022-08-21T01:09:09;6.43;;;4.27;;
9007;SDS011;62813;51.424;6.762;2022-08-21T01:11:36;6.70;;;4.17;;
9007;SDS011;62813;51.424;6.762;2022-08-21T01:14:03;9.33;;;4.33;;
9007;SDS011;62813;51.424;6.762;2022-08-21T01:16:30;8.07;;;4.10;;
9007;SDS011;62813;51.424;6.762;2022-08-21T01:18:57;8.47;;;4.53;;
9007;SDS011;62813;51.424;6.762;2022-08-21T01:21:25;8.70;;;4.57;;
9007;SDS011;62813;51.424;6.762;2022-08-21T01:23:54;8.33;;;4.77;;
9007;SDS011;62813;51.424;6.762;2022-08-21T01:26:24;7.90;;;4.60;;
9007;SDS011;62813;51.424;6.762;2022-08-21T01:29:02;6.93;;;4.80;;
9007;SDS011;62813;51.424;6.762;2022-08-21T01:31:39;7.40;;;5.00;;
9007;SDS011;62813;51.424;6.762;2022-08-21T01:34:06;7.30;;;4.67;;
9007;SDS011;62813;51.424;6.762;2022-08-21T01:36:33;9.47;;;4.53;;
9007;SDS011;62813;51.424;6.762;2022-08-21T01:39:01;11.00;;;5.60;;
9007;SDS011;62813;51.424;6.762;2022-08-21T01:41:30;9.30;;;4.97;;
9007;SDS011;62813;51.424;6.762;2022-08-21T01:43:57;7.87;;;5.23;;
9007;SDS011;62813;51.424;6.762;2022-08-21T01:46:23;8.43;;;5.37;;
9007;SDS011;62813;51.424;6.762;2022-08-21T01:48:50;11.37;;;5.27;;
9007;SDS011;62813;51.424;6.762;2022-08-21T01:51:17;10.27;;;5.27;;
9007;SDS011;62813;51.424;6.762;2022-08-21T01:53:43;8.87;;;5.30;;
9007;SDS011;62813;51.424;6.762;2022-08-21T01:56:11;9.77;;;5.83;;
9007;SDS011;62813;51.424;6.762;2022-08-21T01:58:40;9.47;;;5.13;;
9007;SDS011;62813;51.424;6.762;2022-08-21T02:01:07;8.37;;;5.07;;
9007;SDS011;62813;51.424;6.762;2022-08-21T02:03:35;9.47;;;5.33;;
9007;SDS011;62813;51.424;6.762;2022-08-21T02:06:04;9.30;;;5.00;;
9007;SDS011;62813;51.424;6.762;2022-08-21T02:08:36;7.17;;;5.70;;
9007;SDS011;62813;51.424;6.762;2022-08-21T02:11:02;8.10;;;5.30;;
9007;SDS011;62813;51.424;6.762;2022-08-21T02:13:29;7.70;;;5.20;;
9007;SDS011;62813;51.424;6.762;2022-08-21T02:15:55;10.37;;;5.93;;
9007;SDS011;62813;51.424;6.762;2022-08-21T02:18:22;7.33;;;5.57;;
9007;SDS011;62813;51.424;6.762;2022-08-21T02:20:49;6.83;;;5.00;;
9007;SDS011;62813;51.424;6.762;2022-08-21T02:23:22;8.73;;;5.10;;
9007;SDS011;62813;51.424;6.762;2022-08-21T02:25:52;7.53;;;5.83;;
9007;SDS011;62813;51.424;6.762;2022-08-21T02:28:29;9.27;;;5.70;;
9007;SDS011;62813;51.424;6.762;2022-08-21T02:30:56;11.23;;;5.70;;
9007;SDS011;62813;51.424;6.762;2022-08-21T02:33:23;9.93;;;5.40;;
9007;SDS011;62813;51.424;6.762;2022-08-21T02:35:52;7.50;;;5.07;;
9007;SDS011;62813;51.424;6.762;2022-08-21T02:38:22;6.70;;;5.00;;
9007;SDS011;62813;51.424;6.762;2022-08-21T02:40:51;7.93;;;5.43;;
9007;SDS011;62813;51.424;6.762;2022-08-21T02:43:19;11.77;;;5.40;;
9007;SDS011;62813;51.424;6.762;2022-08-21T02:45:47;8.77;;;5.43;;
9007;SDS011;62813;51.424;6.762;2022-08-21T02:48:16;10.13;;;5.70;;
9007;SDS011;62813;51.424;6.762;2022-08-21T02:50:51;8.37;;;5.73;;
9007;SDS011;62813;51.424;6.762;2022-08-21T02:53:20;6.37;;;4.90;;
9007;SDS011;62813;51.424;6.762;2022-08-21T02:55:48;9.20;;;5.40;;
9007;SDS011;62813;51.424;6.762;2022-08-21T02:58:18;7.50;;;5.20;;
9007;SDS011;62813;51.424;6.762;2022-08-21T03:00:48;8.13;;;5.00;;
9007;SDS011;62813;51.424;6.762;2022-08-21T03:03:16;10.33;;;5.40;;
9007;SDS011;62813;51.424;6.762;2022-08-21T03:05:43;7.13;;;5.20;;
9007;SDS011;62813;51.424;6.762;2022-08-21T03:08:11;9.83;;;6.07;;
9007;SDS011;62813;51.424;6.762;2022-08-21T03:10:39;9.37;;;5.53;;
9007;SDS011;62813;51.424;6.762;2022-08-21T03:13:08;9.00;;;5.50;;
9007;SDS011;62813;51.424;6.762;2022-08-21T03:15:35;9.67;;;5.13;;
9007;SDS011;62813;51.424;6.762;2022-08-21T03:18:03;9.10;;;5.87;;
9007;SDS011;62813;51.424;6.762;2022-08-21T03:20:32;8.20;;;4.90;;
9007;SDS011;62813;51.424;6.762;2022-08-21T03:23:00;7.83;;;5.63;;
9007;SDS011;62813;51.424;6.762;2022-08-21T03:25:38;10.90;;;5.70;;
9007;SDS011;62813;51.424;6.762;2022-08-21T03:28:08;8.20;;;5.23;;
9007;SDS011;62813;51.424;6.762;2022-08-21T03:30:43;7.53;;;5.57;;
9007;SDS011;62813;51.424;6.762;2022-08-21T03:33:11;8.73;;;5.57;;
9007;SDS011;62813;51.424;6.762;2022-08-21T03:35:42;7.90;;;5.77;;
9007;SDS011;62813;51.424;6.762;2022-08-21T03:38:10;10.97;;;6.13;;
9007;SDS011;62813;51.424;6.762;2022-08-21T03:40:39;9.77;;;5.83;;
9007;SDS011;62813;51.424;6.762;2022-08-21T03:43:07;10.47;;;6.07;;
9007;SDS011;62813;51.424;6.762;2022-08-21T03:45:36;12.10;;;6.00;;
9007;SDS011;62813;51.424;6.762;2022-08-21T03:48:03;9.40;;;5.63;;
9007;SDS011;62813;51.424;6.762;2022-08-21T03:50:34;9.17;;;6.17;;
9007;SDS011;62813;51.424;6.762;2022-08-21T03:53:06;12.53;;;6.37;;
9007;SDS011;62813;51.424;6.762;2022-08-21T03:55:42;8.40;;;5.70;;
9007;SDS011;62813;51.424;6.762;2022-08-21T03:58:09;9.87;;;5.83;;
9007;SDS011;62813;51.424;6.762;2022-08-21T04:00:42;8.07;;;5.90;;
9007;SDS011;62813;51.424;6.762;2022-08-21T04:03:14;11.33;;;7.00;;
9007;SDS011;62813;51.424;6.762;2022-08-21T04:05:41;10.00;;;6.70;;
9007;SDS011;62813;51.424;6.762;2022-08-21T04:08:11;8.00;;;6.50;;
9007;SDS011;62813;51.424;6.762;2022-08-21T04:10:39;9.10;;;6.67;;
9007;SDS011;62813;51.424;6.762;2022-08-21T04:13:07;9.53;;;6.60;;
9007;SDS011;62813;51.424;6.762;2022-08-21T04:15:34;12.43;;;6.87;;
9007;SDS011;62813;51.424;6.762;2022-08-21T04:18:01;13.43;;;7.30;;
9007;SDS011;62813;51.424;6.762;2022-08-21T04:20:28;13.77;;;7.27;;
9007;SDS011;62813;51.424;6.762;2022-08-21T04:22:55;10.90;;;6.17;;
9007;SDS011;62813;51.424;6.762;2022-08-21T04:25:22;14.43;;;7.00;;
9007;SDS011;62813;51.424;6.762;2022-08-21T04:27:51;12.17;;;7.43;;
9007;SDS011;62813;51.424;6.762;2022-08-21T04:30:19;9.33;;;7.23;;
9007;SDS011;62813;51.424;6.762;2022-08-21T04:32:53;9.70;;;7.10;;
9007;SDS011;62813;51.424;6.762;2022-08-21T04:35:22;8.37;;;6.87;;
9007;SDS011;62813;51.424;6.762;2022-08-21T04:37:50;10.83;;;7.03;;
9007;SDS011;62813;51.424;6.762;2022-08-21T04:40:17;10.43;;;7.30;;
9007;SDS011;62813;51.424;6.762;2022-08-21T04:42:47;12.97;;;6.83;;
9007;SDS011;62813;51.424;6.762;2022-08-21T04:45:20;12.63;;;8.30;;
9007;SDS011;62813;51.424;6.762;2022-08-21T04:47:49;11.43;;;7.40;;
9007;SDS011;62813;51.424;6.762;2022-08-21T04:50:18;12.23;;;7.30;;
9007;SDS011;62813;51.424;6.762;2022-08-21T04:52:46;10.53;;;7.40;;
9007;SDS011;62813;51.424;6.762;2022-08-21T04:55:13;13.60;;;7.57;;
9007;SDS011;62813;51.424;6.762;2022-08-21T04:57:42;9.30;;;7.03;;
9007;SDS011;62813;51.424;6.762;2022-08-21T05:00:14;9.93;;;7.60;;
9007;SDS011;62813;51.424;6.762;2022-08-21T05:02:45;12.77;;;8.67;;
9007;SDS011;62813;51.424;6.762;2022-08-21T05:05:14;11.37;;;7.70;;
9007;SDS011;62813;51.424;6.762;2022-08-21T05:07:42;11.93;;;7.67;;
9007;SDS011;62813;51.424;6.762;2022-08-21T05:10:11;9.97;;;7.20;;
9007;SDS011;62813;51.424;6.762;2022-08-21T05:12:40;12.00;;;8.10;;
9007;SDS011;62813;51.424;6.762;2022-08-21T05:15:09;10.23;;;7.97;;
9007;SDS011;62813;51.424;6.762;2022-08-21T05:17:40;14.07;;;8.40;;
9007;SDS011;62813;51.424;6.762;2022-08-21T05:20:08;11.40;;;7.63;;
9007;SDS011;62813;51.424;6.762;2022-08-21T05:22:36;9.53;;;7.73;;
9007;SDS011;62813;51.424;6.762;2022-08-21T05:25:04;15.07;;;8.37;;
9007;SDS011;62813;51.424;6.762;2022-08-21T05:27:36;12.17;;;8.80;;
9007;SDS011;62813;51.424;6.762;2022-08-21T05:30:05;10.30;;;8.20;;
9007;SDS011;62813;51.424;6.762;2022-08-21T05:32:34;13.03;;;8.80;;
9007;SDS011;62813;51.424;6.762;2022-08-21T05:35:02;12.30;;;8.57;;
9007;SDS011;62813;51.424;6.762;2022-08-21T05:37:30;11.47;;;7.90;;
9007;SDS011;62813;51.424;6.762;2022-08-21T05:39:56;13.13;;;8.93;;
9007;SDS011;62813;51.424;6.762;2022-08-21T05:42:43;12.17;;;8.07;;
9007;SDS011;62813;51.424;6.762;2022-08-21T05:45:20;9.37;;;7.20;;
9007;SDS011;62813;51.424;6.762;2022-08-21T05:48:10;9.93;;;7.27;;
9007;SDS011;62813;51.424;6.762;2022-08-21T05:50:39;10.30;;;6.77;;
9007;SDS011;62813;51.424;6.762;2022-08-21T05:53:06;13.23;;;6.97;;
9007;SDS011;62813;51.424;6.762;2022-08-21T05:55:33;9.17;;;7.07;;
9007;SDS011;62813;51.424;6.762;2022-08-21T05:58:09;8.83;;;6.63;;
9007;SDS011;62813;51.424;6.762;2022-08-21T06:00:36;13.43;;;6.63;;
9007;SDS011;62813;51.424;6.762;2022-08-21T06:03:03;13.03;;;7.17;;
9007;SDS011;62813;51.424;6.762;2022-08-21T06:05:30;15.67;;;7.73;;
9007;SDS011;62813;51.424;6.762;2022-08-21T06:08:03;11.33;;;7.10;;
9007;SDS011;62813;51.424;6.762;2022-08-21T06:10:32;11.83;;;7.63;;
9007;SDS011;62813;51.424;6.762;2022-08-21T06:12:59;11.47;;;6.77;;
9007;SDS011;62813;51.424;6.762;2022-08-21T06:15:26;14.13;;;7.53;;
9007;SDS011;62813;51.424;6.762;2022-08-21T06:17:53;11.13;;;7.37;;
9007;SDS011;62813;51.424;6.762;2022-08-21T06:20:20;15.40;;;7.20;;
9007;SDS011;62813;51.424;6.762;2022-08-21T06:22:47;11.77;;;6.83;;
9007;SDS011;62813;51.424;6.762;2022-08-21T06:25:14;8.57;;;6.47;;
9007;SDS011;62813;51.424;6.762;2022-08-21T06:27:40;10.87;;;5.73;;
9007;SDS011;62813;51.424;6.762;2022-08-21T06:30:07;8.40;;;5.83;;
9007;SDS011;62813;51.424;6.762;2022-08-21T06:32:35;9.83;;;6.53;;
9007;SDS011;62813;51.424;6.762;2022-08-21T06:35:02;11.37;;;6.27;;
9007;SDS011;62813;51.424;6.762;2022-08-21T06:37:30;13.07;;;5.90;;
9007;SDS011;62813;51.424;6.762;2022-08-21T06:39:58;10.23;;;5.40;;
9007;SDS011;62813;51.424;6.762;2022-08-21T06:42:24;10.43;;;5.40;;
9007;SDS011;62813;51.424;6.762;2022-08-21T06:44:53;11.43;;;5.80;;
9007;SDS011;62813;51.424;6.762;2022-08-21T06:47:20;13.83;;;5.70;;
9007;SDS011;62813;51.424;6.762;2022-08-21T06:49:46;14.33;;;5.53;;
9007;SDS011;62813;51.424;6.762;2022-08-21T06:52:14;10.27;;;5.33;;
9007;SDS011;62813;51.424;6.762;2022-08-21T06:54:42;11.67;;;5.20;;
9007;SDS011;62813;51.424;6.762;2022-08-21T06:57:08;12.03;;;5.70;;
9007;SDS011;62813;51.424;6.762;2022-08-21T06:59:35;13.17;;;5.53;;
9007;SDS011;62813;51.424;6.762;2022-08-21T07:02:02;12.10;;;5.57;;
9007;SDS011;62813;51.424;6.762;2022-08-21T07:04:29;9.37;;;5.70;;
9007;SDS011;62813;51.424;6.762;2022-08-21T07:06:56;10.27;;;4.80;;
9007;SDS011;62813;51.424;6.762;2022-08-21T07:09:22;11.93;;;5.17;;
9007;SDS011;62813;51.424;6.762;2022-08-21T07:11:50;11.83;;;5.60;;
9007;SDS011;62813;51.424;6.762;2022-08-21T07:14:19;9.87;;;5.13;;
9007;SDS011;62813;51.424;6.762;2022-08-21T07:16:47;13.10;;;5.03;;
9007;SDS011;62813;51.424;6.762;2022-08-21T07:19:14;8.87;;;4.40;;
9007;SDS011;62813;51.424;6.762;2022-08-21T07:21:41;10.90;;;3.97;;
9007;SDS011;62813;51.424;6.762;2022-08-21T07:24:08;12.13;;;4.63;;
9007;SDS011;62813;51.424;6.762;2022-08-21T07:26:35;8.13;;;3.70;;
9007;SDS011;62813;51.424;6.762;2022-08-21T07:29:02;9.67;;;3.93;;
9007;SDS011;62813;51.424;6.762;2022-08-21T07:31:29;9.07;;;3.87;;
9007;SDS011;62813;51.424;6.762;2022-08-21T07:33:56;7.50;;;3.60;;
9007;SDS011;62813;51.424;6.762;2022-08-21T07:36:23;6.87;;;3.80;;
9007;SDS011;62813;51.424;6.762;2022-08-21T07:38:50;7.47;;;3.50;;
9007;SDS011;62813;51.424;6.762;2022-08-21T07:41:19;9.07;;;3.63;;
9007;SDS011;62813;51.424;6.762;2022-08-21T07:43:52;7.07;;;2.93;;
9007;SDS011;62813;51.424;6.762;2022-08-21T07:46:19;8.73;;;3.30;;
9007;SDS011;62813;51.424;6.762;2022-08-21T07:48:46;5.57;;;2.40;;
9007;SDS011;62813;51.424;6.762;2022-08-21T07:51:14;6.70;;;2.40;;
9007;SDS011;62813;51.424;6.762;2022-08-21T07:53:47;5.70;;;2.30;;
9007;SDS011;62813;51.424;6.762;2022-08-21T07:56:16;5.83;;;2.50;;
9007;SDS011;62813;51.424;6.762;2022-08-21T07:58:43;8.97;;;2.60;;
9007;SDS011;62813;51.424;6.762;2022-08-21T08:01:09;5.93;;;2.10;;
9007;SDS011;62813;51.424;6.762;2022-08-21T08:03:36;4.90;;;2.03;;
9007;SDS011;62813;51.424;6.762;2022-08-21T08:06:05;2.83;;;1.73;;
9007;SDS011;62813;51.424;6.762;2022-08-21T08:08:34;5.13;;;1.87;;
9007;SDS011;62813;51.424;6.762;2022-08-21T08:11:01;6.37;;;1.80;;
9007;SDS011;62813;51.424;6.762;2022-08-21T08:13:28;4.20;;;1.73;;
9007;SDS011;62813;51.424;6.762;2022-08-21T08:15:54;5.10;;;1.73;;
9007;SDS011;62813;51.424;6.762;2022-08-21T08:18:21;5.93;;;1.80;;
9007;SDS011;62813;51.424;6.762;2022-08-21T08:20:48;5.03;;;2.10;;
9007;SDS011;62813;51.424;6.762;2022-08-21T08:23:15;4.37;;;1.87;;
9007;SDS011;62813;51.424;6.762;2022-08-21T08:25:41;3.83;;;1.50;;
9007;SDS011;62813;51.424;6.762;2022-08-21T08:28:08;3.10;;;1.40;;
9007;SDS011;62813;51.424;6.762;2022-08-21T08:30:43;6.67;;;1.80;;
9007;SDS011;62813;51.424;6.762;2022-08-21T08:33:11;4.87;;;1.90;;
9007;SDS011;62813;51.424;6.762;2022-08-21T08:35:38;4.37;;;1.90;;
9007;SDS011;62813;51.424;6.762;2022-08-21T08:38:07;4.30;;;2.00;;
9007;SDS011;62813;51.424;6.762;2022-08-21T08:40:39;3.80;;;1.80;;
9007;SDS011;62813;51.424;6.762;2022-08-21T08:43:12;4.80;;;1.60;;
9007;SDS011;62813;51.424;6.762;2022-08-21T08:45:42;4.40;;;1.50;;
9007;SDS011;62813;51.424;6.762;2022-08-21T08:48:13;3.83;;;1.50;;
9007;SDS011;62813;51.424;6.762;2022-08-21T08:50:45;6.90;;;1.60;;
9007;SDS011;62813;51.424;6.762;2022-08-21T08:53:18;5.07;;;1.57;;
9007;SDS011;62813;51.424;6.762;2022-08-21T08:55:48;5.37;;;1.87;;
9007;SDS011;62813;51.424;6.762;2022-08-21T08:58:20;3.63;;;1.60;;
9007;SDS011;62813;51.424;6.762;2022-08-21T09:00:51;5.17;;;1.70;;
9007;SDS011;62813;51.424;6.762;2022-08-21T09:03:20;5.10;;;1.50;;
9007;SDS011;62813;51.424;6.762;2022-08-21T09:05:51;4.33;;;2.00;;
9007;SDS011;62813;51.424;6.762;2022-08-21T09:08:34;4.33;;;1.50;;
9007;SDS011;62813;51.424;6.762;2022-08-21T09:11:29;3.73;;;1.70;;
9007;SDS011;62813;51.424;6.762;2022-08-21T09:14:21;7.43;;;1.97;;
9007;SDS011;62813;51.424;6.762;2022-08-21T09:20:17;3.17;;;1.33;;
9007;SDS011;62813;51.424;6.762;2022-08-21T09:28:30;4.07;;;1.73;;
9007;SDS011;62813;51.424;6.762;2022-08-21T09:30:58;4.40;;;1.70;;
9007;SDS011;62813;51.424;6.762;2022-08-21T09:33:28;4.27;;;1.30;;
9007;SDS011;62813;51.424;6.762;2022-08-21T09:35:55;4.03;;;1.57;;
9007;SDS011;62813;51.424;6.762;2022-08-21T09:38:30;5.53;;;1.63;;
9007;SDS011;62813;51.424;6.762;2022-08-21T09:41:08;3.63;;;1.70;;
9007;SDS011;62813;51.424;6.762;2022-08-21T09:43:37;4.20;;;1.43;;
9007;SDS011;62813;51.424;6.762;2022-08-21T09:46:20;6.80;;;1.47;;
9007;SDS011;62813;51.424;6.762;2022-08-21T09:48:52;3.83;;;1.60;;
9007;SDS011;62813;51.424;6.762;2022-08-21T09:51:26;3.43;;;1.20;;
9007;SDS011;62813;51.424;6.762;2022-08-21T09:54:10;3.43;;;1.40;;
9007;SDS011;62813;51.424;6.762;2022-08-21T09:56:53;3.03;;;1.47;;
9007;SDS011;62813;51.424;6.762;2022-08-21T09:59:41;4.33;;;1.60;;
9007;SDS011;62813;51.424;6.762;2022-08-21T10:02:42;4.27;;;1.60;;
9007;SDS011;62813;51.424;6.762;2022-08-21T10:05:03;3.80;;;1.53;;
9007;SDS011;62813;51.424;6.762;2022-08-21T10:07:36;4.50;;;1.73;;
9007;SDS011;62813;51.424;6.762;2022-08-21T10:19:09;3.70;;;1.70;;
9007;SDS011;62813;51.424;6.762;2022-08-21T10:21:29;4.50;;;1.63;;
9007;SDS011;62813;51.424;6.762;2022-08-21T10:24:19;5.93;;;1.90;;
9007;SDS011;62813;51.424;6.762;2022-08-21T10:27:02;4.07;;;1.90;;
9007;SDS011;62813;51.424;6.762;2022-08-21T10:40:30;5.07;;;1.77;;
9007;SDS011;62813;51.424;6.762;2022-08-21T10:43:18;4.13;;;1.73;;
9007;SDS011;62813;51.424;6.762;2022-08-21T10:48:54;6.60;;;1.93;;
9007;SDS011;62813;51.424;6.762;2022-08-21T10:51:40;4.37;;;1.70;;
9007;SDS011;62813;51.424;6.762;2022-08-21T10:54:19;4.87;;;1.70;;
9007;SDS011;62813;51.424;6.762;2022-08-21T10:57:16;6.17;;;1.90;;
9007;SDS011;62813;51.424;6.762;2022-08-21T11:00:03;3.93;;;1.50;;
9007;SDS011;62813;51.424;6.762;2022-08-21T11:02:41;4.90;;;1.73;;
9007;SDS011;62813;51.424;6.762;2022-08-21T11:05:50;4.03;;;1.50;;
9007;SDS011;62813;51.424;6.762;2022-08-21T11:08:39;3.53;;;1.50;;
9007;SDS011;62813;51.424;6.762;2022-08-21T11:11:14;4.10;;;1.70;;
9007;SDS011;62813;51.424;6.762;2022-08-21T11:22:15;2.13;;;1.20;;
9007;SDS011;62813;51.424;6.762;2022-08-21T11:24:57;2.50;;;1.30;;
9007;SDS011;62813;51.424;6.762;2022-08-21T11:27:36;1.73;;;1.13;;
9007;SDS011;62813;51.424;6.762;2022-08-21T11:30:07;2.67;;;1.27;;
9007;SDS011;62813;51.424;6.762;2022-08-21T11:32:56;2.53;;;1.10;;
9007;SDS011;62813;51.424;6.762;2022-08-21T11:43:44;4.17;;;1.20;;
9007;SDS011;62813;51.424;6.762;2022-08-21T11:54:26;2.70;;;1.40;;
9007;SDS011;62813;51.424;6.762;2022-08-21T11:57:14;3.60;;;1.50;;
9007;SDS011;62813;51.424;6.762;2022-08-21T11:59:53;3.03;;;1.20;;
9007;SDS011;62813;51.424;6.762;2022-08-21T12:02:32;2.80;;;1.40;;
9007;SDS011;62813;51.424;6.762;2022-08-21T12:05:03;3.67;;;1.23;;
9007;SDS011;62813;51.424;6.762;2022-08-21T12:07:39;2.60;;;1.20;;
9007;SDS011;62813;51.424;6.762;2022-08-21T12:10:09;3.33;;;1.30;;
9007;SDS011;62813;51.424;6.762;2022-08-21T12:12:38;4.33;;;1.30;;
9007;SDS011;62813;51.424;6.762;2022-08-21T12:17:40;4.03;;;1.40;;
9007;SDS011;62813;51.424;6.762;2022-08-21T12:20:22;3.33;;;1.27;;
9007;SDS011;62813;51.424;6.762;2022-08-21T12:23:01;2.93;;;1.33;;
9007;SDS011;62813;51.424;6.762;2022-08-21T12:25:42;4.50;;;1.50;;
9007;SDS011;62813;51.424;6.762;2022-08-21T12:28:10;2.20;;;1.30;;
9007;SDS011;62813;51.424;6.762;2022-08-21T12:30:43;2.47;;;1.37;;
9007;SDS011;62813;51.424;6.762;2022-08-21T12:33:18;3.00;;;1.53;;
9007;SDS011;62813;51.424;6.762;2022-08-21T12:35:49;3.97;;;1.40;;
9007;SDS011;62813;51.424;6.762;2022-08-21T12:43:32;3.47;;;1.30;;
9007;SDS011;62813;51.424;6.762;2022-08-21T12:46:02;3.67;;;1.50;;
9007;SDS011;62813;51.424;6.762;2022-08-21T12:48:41;4.00;;;1.30;;
9007;SDS011;62813;51.424;6.762;2022-08-21T12:51:14;5.13;;;1.60;;
9007;SDS011;62813;51.424;6.762;2022-08-21T12:53:45;6.53;;;1.60;;
9007;SDS011;62813;51.424;6.762;2022-08-21T12:56:16;3.97;;;1.73;;
9007;SDS011;62813;51.424;6.762;2022-08-21T12:58:50;3.70;;;1.30;;
9007;SDS011;62813;51.424;6.762;2022-08-21T13:01:23;5.60;;;1.60;;
9007;SDS011;62813;51.424;6.762;2022-08-21T13:03:54;4.63;;;1.60;;
9007;SDS011;62813;51.424;6.762;2022-08-21T13:06:36;3.80;;;1.30;;
9007;SDS011;62813;51.424;6.762;2022-08-21T13:09:05;3.23;;;1.30;;
9007;SDS011;62813;51.424;6.762;2022-08-21T13:11:34;3.57;;;1.47;;
9007;SDS011;62813;51.424;6.762;2022-08-21T13:14:02;4.23;;;1.60;;
9007;SDS011;62813;51.424;6.762;2022-08-21T13:16:30;2.33;;;1.10;;
9007;SDS011;62813;51.424;6.762;2022-08-21T13:19:05;4.37;;;1.33;;
9007;SDS011;62813;51.424;6.762;2022-08-21T13:21:34;4.00;;;1.57;;
9007;SDS011;62813;51.424;6.762;2022-08-21T13:24:25;3.97;;;1.60;;
9007;SDS011;62813;51.424;6.762;2022-08-21T13:27:23;2.80;;;1.50;;
9007;SDS011;62813;51.424;6.762;2022-08-21T13:30:03;1.77;;;1.30;;
9007;SDS011;62813;51.424;6.762;2022-08-21T13:32:39;2.57;;;1.60;;
9007;SDS011;62813;51.424;6.762;2022-08-21T13:35:15;3.23;;;1.50;;
9007;SDS011;62813;51.424;6.762;2022-08-21T13:37:43;3.80;;;1.10;;
9007;SDS011;62813;51.424;6.762;2022-08-21T13:40:13;5.57;;;1.70;;
9007;SDS011;62813;51.424;6.762;2022-08-21T13:42:43;3.07;;;1.37;;
9007;SDS011;62813;51.424;6.762;2022-08-21T13:45:13;2.87;;;1.27;;
9007;SDS011;62813;51.424;6.762;2022-08-21T13:47:44;8.10;;;1.50;;
9007;SDS011;62813;51.424;6.762;2022-08-21T13:50:13;4.97;;;1.40;;
9007;SDS011;62813;51.424;6.762;2022-08-21T13:52:53;2.77;;;1.23;;
9007;SDS011;62813;51.424;6.762;2022-08-21T13:55:24;4.40;;;1.43;;
9007;SDS011;62813;51.424;6.762;2022-08-21T13:57:58;5.00;;;1.30;;
9007;SDS011;62813;51.424;6.762;2022-08-21T14:00:27;2.27;;;1.70;;
9007;SDS011;62813;51.424;6.762;2022-08-21T14:03:06;4.23;;;1.47;;
9007;SDS011;62813;51.424;6.762;2022-08-21T14:05:44;2.70;;;1.17;;
9007;SDS011;62813;51.424;6.762;2022-08-21T14:08:13;1.93;;;1.20;;
9007;SDS011;62813;51.424;6.762;2022-08-21T14:10:55;3.53;;;1.60;;
9007;SDS011;62813;51.424;6.762;2022-08-21T14:16:10;5.00;;;1.60;;
9007;SDS011;62813;51.424;6.762;2022-08-21T14:21:37;3.13;;;1.77;;
9007;SDS011;62813;51.424;6.762;2022-08-21T14:26:48;2.73;;;1.40;;
9007;SDS011;62813;51.424;6.762;2022-08-21T14:29:18;4.23;;;1.73;;
9007;SDS011;62813;51.424;6.762;2022-08-21T14:31:52;3.93;;;1.70;;
9007;SDS011;62813;51.424;6.762;2022-08-21T14:34:20;3.87;;;1.80;;
9007;SDS011;62813;51.424;6.762;2022-08-21T14:36:48;6.13;;;1.67;;
9007;SDS011;62813;51.424;6.762;2022-08-21T14:39:16;4.80;;;2.10;;
9007;SDS011;62813;51.424;6.762;2022-08-21T14:41:44;5.27;;;1.83;;
9007;SDS011;62813;51.424;6.762;2022-08-21T14:44:14;5.17;;;1.77;;
9007;SDS011;62813;51.424;6.762;2022-08-21T14:46:43;3.50;;;1.77;;
9007;SDS011;62813;51.424;6.762;2022-08-21T14:49:21;4.47;;;1.50;;
9007;SDS011;62813;51.424;6.762;2022-08-21T14:51:53;6.43;;;1.70;;
9007;SDS011;62813;51.424;6.762;2022-08-21T14:54:24;5.33;;;1.63;;
9007;SDS011;62813;51.424;6.762;2022-08-21T14:57:08;2.50;;;1.50;;
9007;SDS011;62813;51.424;6.762;2022-08-21T14:59:36;7.03;;;1.67;;
9007;SDS011;62813;51.424;6.762;2022-08-21T15:02:04;3.80;;;1.63;;
9007;SDS011;62813;51.424;6.762;2022-08-21T15:04:33;3.80;;;1.80;;
9007;SDS011;62813;51.424;6.762;2022-08-21T15:07:00;6.03;;;1.90;;
9007;SDS011;62813;51.424;6.762;2022-08-21T15:09:27;3.53;;;1.50;;
9007;SDS011;62813;51.424;6.762;2022-08-21T15:11:56;3.43;;;1.60;;
9007;SDS011;62813;51.424;6.762;2022-08-21T15:14:25;5.20;;;2.00;;
9007;SDS011;62813;51.424;6.762;2022-08-21T15:16:55;4.07;;;1.80;;
9007;SDS011;62813;51.424;6.762;2022-08-21T15:19:21;4.87;;;1.73;;
9007;SDS011;62813;51.424;6.762;2022-08-21T15:21:49;5.13;;;1.90;;
9007;SDS011;62813;51.424;6.762;2022-08-21T15:24:15;4.53;;;1.97;;
9007;SDS011;62813;51.424;6.762;2022-08-21T15:26:42;4.60;;;1.63;;
9007;SDS011;62813;51.424;6.762;2022-08-21T15:29:10;6.33;;;1.77;;
9007;SDS011;62813;51.424;6.762;2022-08-21T15:31:40;5.77;;;1.67;;
9007;SDS011;62813;51.424;6.762;2022-08-21T15:34:17;3.73;;;1.60;;
9007;SDS011;62813;51.424;6.762;2022-08-21T15:36:44;4.17;;;1.90;;
9007;SDS011;62813;51.424;6.762;2022-08-21T15:39:10;5.03;;;1.73;;
9007;SDS011;62813;51.424;6.762;2022-08-21T15:41:37;3.63;;;1.53;;
9007;SDS011;62813;51.424;6.762;2022-08-21T15:44:04;5.23;;;2.00;;
9007;SDS011;62813;51.424;6.762;2022-08-21T15:46:31;4.00;;;1.73;;
9007;SDS011;62813;51.424;6.762;2022-08-21T15:48:58;3.67;;;1.50;;
9007;SDS011;62813;51.424;6.762;2022-08-21T15:51:25;5.93;;;1.50;;
9007;SDS011;62813;51.424;6.762;2022-08-21T15:53:51;5.33;;;1.60;;
9007;SDS011;62813;51.424;6.762;2022-08-21T15:56:25;3.23;;;1.50;;
9007;SDS011;62813;51.424;6.762;2022-08-21T15:58:57;1.83;;;1.07;;
9007;SDS011;62813;51.424;6.762;2022-08-21T16:01:26;4.47;;;1.70;;
9007;SDS011;62813;51.424;6.762;2022-08-21T16:04:09;4.63;;;1.40;;
9007;SDS011;62813;51.424;6.762;2022-08-21T16:06:38;4.47;;;1.60;;
9007;SDS011;62813;51.424;6.762;2022-08-21T16:09:20;3.93;;;1.53;;
9007;SDS011;62813;51.424;6.762;2022-08-21T16:11:47;5.40;;;1.70;;
9007;SDS011;62813;51.424;6.762;2022-08-21T16:14:15;4.07;;;1.47;;
9007;SDS011;62813;51.424;6.762;2022-08-21T16:16:42;3.80;;;1.70;;
9007;SDS011;62813;51.424;6.762;2022-08-21T16:19:09;3.27;;;1.30;;
9007;SDS011;62813;51.424;6.762;2022-08-21T16:21:37;3.93;;;1.40;;
9007;SDS011;62813;51.424;6.762;2022-08-21T16:24:04;4.43;;;1.50;;
9007;SDS011;62813;51.424;6.762;2022-08-21T16:26:31;3.73;;;1.40;;
9007;SDS011;62813;51.424;6.762;2022-08-21T16:28:59;2.90;;;1.37;;
9007;SDS011;62813;51.424;6.762;2022-08-21T16:31:26;7.37;;;1.83;;
9007;SDS011;62813;51.424;6.762;2022-08-21T16:33:55;3.37;;;1.37;;